Time;durP1;ratioP1;P1;durP2;ratioP2;P2;SDS_P1;SDS_P2;PMS_P1;PMS_P2;Temp;Humidity;BMP_temperature;BMP_pressure;BME280_temperature;BME280_humidity;BME280_pressure;Samples;Min_cycle;Max_cycle;Signal;HPM_P1;HPM_P2
2022/10/07 00:00:35;;;;;;;4.83;1.80;;;9.30;99.90;;;;;;5045913;28;20427;-75
2022/10/07 00:03:24;;;;;;;2.60;2.00;;;9.30;99.90;;;;;;5030128;28;20439;-75
2022/10/07 00:06:13;;;;;;;6.37;2.13;;;9.40;99.90;;;;;;5035435;28;20509;-75
2022/10/07 00:09:00;;;;;;;5.00;2.13;;;9.50;99.90;;;;;;5043576;28;20424;-75
2022/10/07 00:11:46;;;;;;;3.90;2.20;;;9.30;99.90;;;;;;5020565;28;20403;-75
2022/10/07 00:14:31;;;;;;;3.97;2.00;;;9.30;99.90;;;;;;5035730;28;20521;-75
2022/10/07 00:17:17;;;;;;;12.37;2.77;;;9.00;99.90;;;;;;5032490;28;20467;-75
2022/10/07 00:20:05;;;;;;;6.17;2.77;;;8.80;99.90;;;;;;5040068;28;20428;-75
2022/10/07 00:22:52;;;;;;;3.60;1.93;;;8.70;99.90;;;;;;5035441;28;20534;-75
2022/10/07 00:25:38;;;;;;;10.53;2.50;;;8.70;99.90;;;;;;5035813;28;20431;-75
2022/10/07 00:28:24;;;;;;;6.43;2.30;;;8.80;99.90;;;;;;5035149;28;20514;-76
2022/10/07 00:31:13;;;;;;;10.23;2.20;;;9.00;99.90;;;;;;5038053;28;20403;-77
2022/10/07 00:33:59;;;;;;;8.50;2.20;;;9.20;99.90;;;;;;5037678;28;20506;-76
2022/10/07 00:36:49;;;;;;;6.50;2.77;;;9.20;99.90;;;;;;5029189;28;20456;-76
2022/10/07 00:39:34;;;;;;;8.50;2.57;;;9.20;99.90;;;;;;5031075;28;20453;-75
2022/10/07 00:42:20;;;;;;;6.37;2.40;;;9.20;99.90;;;;;;5035088;28;20403;-77
2022/10/07 00:45:07;;;;;;;3.47;2.07;;;9.20;99.90;;;;;;5044293;28;20419;-76
2022/10/07 00:47:53;;;;;;;9.53;2.70;;;9.20;99.90;;;;;;5036776;28;20423;-75
2022/10/07 00:50:38;;;;;;;4.40;2.50;;;9.30;99.90;;;;;;5033816;28;20790;-76
2022/10/07 00:53:27;;;;;;;10.23;2.43;;;9.40;99.90;;;;;;5034180;28;20452;-76
2022/10/07 00:56:15;;;;;;;5.27;1.97;;;9.30;99.90;;;;;;5035473;28;20524;-76
2022/10/07 00:59:01;;;;;;;13.37;2.83;;;9.30;99.90;;;;;;5028424;28;20451;-77
2022/10/07 01:01:47;;;;;;;8.97;2.30;;;9.10;99.90;;;;;;5033265;28;20467;-76
2022/10/07 01:04:33;;;;;;;6.23;4.33;;;9.10;99.90;;;;;;5032460;28;20456;-76
2022/10/07 01:07:20;;;;;;;7.23;2.37;;;9.10;99.90;;;;;;5030423;28;20806;-77
2022/10/07 01:10:10;;;;;;;5.40;1.90;;;9.10;99.90;;;;;;5035280;28;20527;-76
2022/10/07 01:13:04;;;;;;;9.97;2.40;;;9.10;99.90;;;;;;5028687;28;20448;-76
2022/10/07 01:15:55;;;;;;;6.33;2.47;;;9.10;99.90;;;;;;5029345;28;20452;-75
2022/10/07 01:18:48;;;;;;;6.43;2.97;;;9.10;99.90;;;;;;5032869;28;20552;-76
2022/10/07 01:21:40;;;;;;;6.27;2.20;;;8.90;99.90;;;;;;5030772;28;20428;-73
2022/10/07 01:24:36;;;;;;;4.97;2.53;;;9.00;99.90;;;;;;5029112;28;20470;-76
2022/10/07 01:27:25;;;;;;;6.13;2.63;;;9.00;99.90;;;;;;5029474;28;20457;-75
2022/10/07 01:30:12;;;;;;;7.63;2.80;;;9.10;99.90;;;;;;5028515;28;20520;-76
2022/10/07 01:33:03;;;;;;;6.47;2.50;;;9.10;99.90;;;;;;5033209;28;20422;-76
2022/10/07 01:35:51;;;;;;;7.43;2.47;;;9.10;99.90;;;;;;5030559;28;20592;-77
2022/10/07 01:38:43;;;;;;;6.57;2.53;;;9.00;99.90;;;;;;5037386;28;20487;-77
2022/10/07 01:41:31;;;;;;;8.30;2.77;;;8.80;99.90;;;;;;5033246;28;20440;-76
2022/10/07 01:44:18;;;;;;;8.90;2.37;;;8.60;99.90;;;;;;5037806;28;20467;-76
2022/10/07 01:47:04;;;;;;;9.93;3.27;;;8.40;99.90;;;;;;5039381;28;20546;-76
2022/10/07 01:49:50;;;;;;;5.13;2.17;;;8.50;99.90;;;;;;5032369;28;20552;-76
2022/10/07 01:52:49;;;;;;;11.90;2.40;;;8.50;99.90;;;;;;5026233;28;20443;-76
2022/10/07 01:55:49;;;;;;;10.50;2.83;;;8.50;99.90;;;;;;5030810;28;20575;-75
2022/10/07 01:59:04;;;;;;;5.70;2.20;;;8.50;99.90;;;;;;5029016;28;20483;-76
2022/10/07 02:01:59;;;;;;;4.07;2.70;;;8.50;99.90;;;;;;5038528;28;20504;-75
2022/10/07 02:04:54;;;;;;;6.80;2.50;;;8.70;99.90;;;;;;5027196;28;20989;-76
2022/10/07 02:07:51;;;;;;;9.20;3.50;;;8.90;99.90;;;;;;5033604;28;20444;-76
2022/10/07 02:10:45;;;;;;;4.53;2.40;;;9.00;99.90;;;;;;5031684;28;20485;-77
2022/10/07 02:13:36;;;;;;;6.73;1.97;;;9.10;99.90;;;;;;5033118;28;21004;-77
2022/10/07 02:16:26;;;;;;;6.70;2.60;;;9.00;99.90;;;;;;5030231;28;20460;-76
2022/10/07 02:19:15;;;;;;;5.10;2.17;;;8.90;99.90;;;;;;5035978;28;20472;-76
2022/10/07 02:22:03;;;;;;;3.83;2.63;;;8.80;99.90;;;;;;5042919;28;20514;-76
2022/10/07 02:24:53;;;;;;;6.67;2.30;;;8.80;99.90;;;;;;5030187;28;20627;-75
2022/10/07 02:27:40;;;;;;;4.63;2.00;;;8.80;99.90;;;;;;5030991;28;20509;-77
2022/10/07 02:30:26;;;;;;;6.37;2.43;;;8.90;99.90;;;;;;5031886;28;20525;-76
2022/10/07 02:33:12;;;;;;;9.83;2.57;;;8.80;99.90;;;;;;5043555;28;20501;-76
2022/10/07 02:36:03;;;;;;;5.70;2.67;;;8.70;99.90;;;;;;5036080;28;20452;-76
2022/10/07 02:38:49;;;;;;;5.40;2.20;;;8.60;99.90;;;;;;5031205;28;20480;-76
2022/10/07 02:41:40;;;;;;;5.80;2.20;;;8.50;99.90;;;;;;5038876;28;20766;-76
2022/10/07 02:44:32;;;;;;;4.03;2.13;;;8.50;99.90;;;;;;5036710;28;20473;-76
2022/10/07 02:47:27;;;;;;;6.43;3.30;;;8.20;99.90;;;;;;5043600;28;20437;-76
2022/10/07 02:50:19;;;;;;;6.37;2.77;;;8.20;99.90;;;;;;5043882;28;20475;-76
2022/10/07 02:53:07;;;;;;;10.90;3.10;;;8.30;99.90;;;;;;5043304;28;20406;-76
2022/10/07 02:55:56;;;;;;;4.70;2.07;;;8.20;99.90;;;;;;5040227;28;20436;-76
2022/10/07 02:58:44;;;;;;;3.60;2.00;;;8.20;99.90;;;;;;5033781;28;20517;-76
2022/10/07 03:01:33;;;;;;;3.03;2.00;;;8.20;99.90;;;;;;5038389;28;20430;-77
2022/10/07 03:04:20;;;;;;;9.70;3.87;;;8.30;99.90;;;;;;5026575;28;21357;-76
2022/10/07 03:07:05;;;;;;;8.03;2.20;;;8.30;99.90;;;;;;5032234;28;20436;-76
2022/10/07 03:09:53;;;;;;;11.70;2.43;;;8.40;99.90;;;;;;5028543;28;20444;-76
2022/10/07 03:12:38;;;;;;;8.40;2.47;;;8.50;99.90;;;;;;5030514;28;20448;-76
2022/10/07 03:15:26;;;;;;;3.60;2.10;;;8.60;99.90;;;;;;5028662;28;20452;-76
2022/10/07 03:18:25;;;;;;;5.03;2.20;;;8.40;99.90;;;;;;5044344;28;20558;-76
2022/10/07 03:21:10;;;;;;;4.40;2.23;;;8.40;99.90;;;;;;5030799;28;20453;-76
2022/10/07 03:23:56;;;;;;;5.20;2.80;;;8.20;99.90;;;;;;5025793;28;20468;-76
2022/10/07 03:26:43;;;;;;;3.73;2.53;;;8.20;99.90;;;;;;5031988;28;20436;-76
2022/10/07 03:29:31;;;;;;;7.00;2.40;;;8.20;99.90;;;;;;5031327;28;20787;-74
2022/10/07 03:32:17;;;;;;;7.20;2.50;;;8.10;99.90;;;;;;5030798;28;20447;-76
2022/10/07 03:35:02;;;;;;;18.23;3.40;;;8.00;99.90;;;;;;5027990;28;20472;-76
2022/10/07 03:37:48;;;;;;;5.70;2.40;;;7.90;99.90;;;;;;5029271;28;20572;-75
2022/10/07 03:40:34;;;;;;;7.33;2.10;;;7.90;99.90;;;;;;5032586;28;20977;-76
2022/10/07 03:43:21;;;;;;;6.07;2.33;;;8.00;99.90;;;;;;5023301;28;20961;-76
2022/10/07 03:46:06;;;;;;;6.20;2.37;;;7.90;99.90;;;;;;5025648;28;20440;-75
2022/10/07 03:48:52;;;;;;;3.47;2.30;;;7.90;99.90;;;;;;5032623;28;20988;-76
2022/10/07 03:51:37;;;;;;;6.10;2.77;;;7.90;99.90;;;;;;5025391;28;20487;-77
2022/10/07 03:54:23;;;;;;;15.23;2.90;;;7.90;99.90;;;;;;5028150;28;20858;-76
2022/10/07 04:00:11;;;;;;;5.93;2.40;;;7.90;99.90;;;;;;5037015;28;20528;-76
2022/10/07 04:02:56;;;;;;;4.13;2.53;;;8.00;99.90;;;;;;5026586;28;20993;-74
2022/10/07 04:05:44;;;;;;;4.60;2.90;;;8.20;99.90;;;;;;5027092;28;20448;-76
2022/10/07 04:08:31;;;;;;;10.13;2.50;;;8.30;99.90;;;;;;5028958;28;20440;-76
2022/10/07 04:11:17;;;;;;;8.53;2.77;;;8.40;99.90;;;;;;5033177;28;20792;-77
2022/10/07 04:14:03;;;;;;;7.00;2.67;;;8.40;99.90;;;;;;5030110;28;20462;-76
2022/10/07 04:16:50;;;;;;;4.03;2.13;;;8.40;99.90;;;;;;5024101;28;20444;-76
2022/10/07 04:19:35;;;;;;;3.70;1.97;;;8.40;99.90;;;;;;5027320;28;20467;-76
2022/10/07 04:22:21;;;;;;;4.70;2.03;;;8.40;99.90;;;;;;5025154;28;20460;-75
2022/10/07 04:28:17;;;;;;;3.70;2.20;;;8.10;99.90;;;;;;5037703;28;20459;-76
2022/10/07 04:31:04;;;;;;;7.17;2.27;;;7.90;99.90;;;;;;5039278;28;20515;-77
2022/10/07 04:33:51;;;;;;;4.87;2.17;;;7.80;99.90;;;;;;5031092;28;21009;-77
2022/10/07 04:36:36;;;;;;;3.30;2.17;;;7.70;99.90;;;;;;5031647;28;20395;-76
2022/10/07 04:39:22;;;;;;;5.90;2.77;;;7.70;99.90;;;;;;5036757;28;20552;-74
2022/10/07 04:43:17;;;;;;;8.63;2.77;;;7.80;99.90;;;;;;5037568;28;20523;-76
2022/10/07 04:45:13;;;;;;;4.90;1.90;;;8.00;99.90;;;;;;5042407;28;20447;-77
2022/10/07 04:47:59;;;;;;;5.43;2.40;;;8.00;99.90;;;;;;5042183;28;20436;-76
2022/10/07 04:50:47;;;;;;;4.17;2.40;;;8.00;99.90;;;;;;5040946;28;20916;-76
2022/10/07 04:53:32;;;;;;;10.70;2.40;;;8.10;99.90;;;;;;5024563;28;20827;-76
2022/10/07 04:56:18;;;;;;;4.50;2.53;;;8.10;99.90;;;;;;5037651;28;20420;-77
2022/10/07 04:59:03;;;;;;;3.73;2.40;;;8.10;99.90;;;;;;5032142;28;20469;-77
2022/10/07 05:01:49;;;;;;;4.27;2.50;;;8.20;99.90;;;;;;5029228;28;20423;-77
2022/10/07 05:04:35;;;;;;;8.73;2.23;;;8.30;99.90;;;;;;5041551;28;20462;-77
2022/10/07 05:07:23;;;;;;;7.57;2.60;;;8.20;99.90;;;;;;5028485;28;20436;-76
2022/10/07 05:10:09;;;;;;;7.50;2.77;;;8.30;99.90;;;;;;5028597;28;20580;-77
2022/10/07 05:12:55;;;;;;;7.23;2.77;;;8.30;99.90;;;;;;5027770;28;20477;-76
2022/10/07 05:15:48;;;;;;;6.70;2.80;;;8.30;99.90;;;;;;5040834;28;20447;-77
2022/10/07 05:18:34;;;;;;;5.40;2.00;;;8.30;99.90;;;;;;5027515;28;20521;-76
2022/10/07 05:21:19;;;;;;;3.50;2.00;;;8.40;99.90;;;;;;5024727;28;20986;-76
2022/10/07 05:24:07;;;;;;;5.43;3.00;;;8.40;99.90;;;;;;5029015;28;20977;-75
2022/10/07 05:26:53;;;;;;;5.30;2.43;;;8.50;99.90;;;;;;5033769;28;20415;-76
2022/10/07 05:29:39;;;;;;;3.77;2.20;;;8.40;99.90;;;;;;5032527;28;20991;-76
2022/10/07 05:32:26;;;;;;;3.40;2.60;;;8.40;99.90;;;;;;5025683;28;20922;-76
2022/10/07 05:35:11;;;;;;;3.20;2.07;;;8.50;99.90;;;;;;5029807;28;20982;-77
2022/10/07 05:37:57;;;;;;;3.67;2.20;;;8.40;99.90;;;;;;5029430;28;20444;-76
2022/10/07 05:40:44;;;;;;;5.23;1.80;;;8.30;99.90;;;;;;5028763;28;20944;-76
2022/10/07 05:43:31;;;;;;;6.10;2.17;;;8.20;99.90;;;;;;5027433;28;20442;-76
2022/10/07 05:46:20;;;;;;;2.63;2.17;;;8.20;99.90;;;;;;5025017;28;20480;-76
2022/10/07 05:49:06;;;;;;;3.70;1.77;;;8.30;99.90;;;;;;5022229;28;20523;-75
2022/10/07 05:51:51;;;;;;;4.53;1.70;;;8.20;99.90;;;;;;5020761;28;20463;-76
2022/10/07 05:54:37;;;;;;;4.50;1.93;;;8.20;99.90;;;;;;5020883;28;20472;-77
2022/10/07 05:57:24;;;;;;;10.97;2.80;;;8.30;99.90;;;;;;5029578;28;20437;-76
2022/10/07 06:00:11;;;;;;;8.97;2.70;;;8.50;99.90;;;;;;5020642;28;20472;-77
2022/10/07 06:02:57;;;;;;;6.23;2.50;;;8.60;99.90;;;;;;5033514;28;20440;-76
2022/10/07 06:05:44;;;;;;;3.40;2.00;;;8.60;99.90;;;;;;5034475;28;20403;-75
2022/10/07 06:08:30;;;;;;;6.10;2.43;;;8.70;99.90;;;;;;5041034;28;20428;-77
2022/10/07 06:14:21;;;;;;;6.80;2.60;;;8.60;99.90;;;;;;5027559;28;20498;-76
2022/10/07 06:17:07;;;;;;;5.67;2.87;;;8.50;99.90;;;;;;5030442;28;20427;-76
2022/10/07 06:19:53;;;;;;;4.70;3.00;;;8.40;99.90;;;;;;5031488;28;21152;-76
2022/10/07 06:22:38;;;;;;;6.53;2.73;;;8.50;99.90;;;;;;5031014;28;21055;-77
2022/10/07 06:25:24;;;;;;;4.93;2.63;;;8.60;99.90;;;;;;5031187;28;20447;-76
2022/10/07 06:28:10;;;;;;;5.93;3.37;;;8.80;99.90;;;;;;5043370;28;21092;-76
2022/10/07 06:30:57;;;;;;;5.23;3.00;;;8.90;99.90;;;;;;5042105;28;20494;-75
2022/10/07 06:33:42;;;;;;;6.80;2.87;;;8.90;99.90;;;;;;5054335;28;20448;-76
2022/10/07 06:36:28;;;;;;;5.90;3.10;;;9.00;99.90;;;;;;5038767;28;20423;-76
2022/10/07 06:39:15;;;;;;;10.40;3.20;;;9.10;99.90;;;;;;5050837;28;20573;-76
2022/10/07 06:42:01;;;;;;;6.30;2.87;;;9.10;99.90;;;;;;5046052;28;20462;-77
2022/10/07 06:44:47;;;;;;;9.33;3.00;;;9.10;99.90;;;;;;5055593;28;20451;-76
2022/10/07 06:47:34;;;;;;;6.53;3.07;;;9.10;99.90;;;;;;5049969;28;20839;-76
2022/10/07 06:50:20;;;;;;;6.63;2.90;;;9.20;99.90;;;;;;5036600;28;21017;-77
2022/10/07 06:53:05;;;;;;;7.60;2.97;;;9.30;99.90;;;;;;5039172;28;20424;-76
2022/10/07 06:55:53;;;;;;;8.90;3.07;;;9.40;99.90;;;;;;5051410;28;20506;-76
2022/10/07 06:58:38;;;;;;;6.20;4.20;;;9.60;99.90;;;;;;5041529;28;20536;-77
2022/10/07 07:01:24;;;;;;;8.33;2.60;;;9.70;99.90;;;;;;5032302;28;20541;-76
2022/10/07 07:04:11;;;;;;;9.70;2.97;;;9.90;99.90;;;;;;5036777;28;20966;-77
2022/10/07 07:06:57;;;;;;;6.93;2.80;;;10.00;99.90;;;;;;5036575;28;20914;-76
2022/10/07 07:09:42;;;;;;;12.73;3.20;;;9.90;99.90;;;;;;5033325;28;20444;-77
2022/10/07 07:12:28;;;;;;;5.07;2.60;;;10.00;99.90;;;;;;5047983;28;20447;-77
2022/10/07 07:15:14;;;;;;;7.67;2.33;;;10.00;99.90;;;;;;5035185;28;20521;-77
2022/10/07 07:18:00;;;;;;;5.50;3.30;;;10.00;99.90;;;;;;5039160;28;20445;-77
2022/10/07 07:20:47;;;;;;;5.10;1.93;;;10.10;99.90;;;;;;5035536;28;20467;-76
2022/10/07 07:23:32;;;;;;;8.03;2.50;;;10.10;99.90;;;;;;5035482;28;20484;-76
2022/10/07 07:26:19;;;;;;;8.10;2.87;;;10.30;99.90;;;;;;5034267;28;20536;-77
2022/10/07 07:29:06;;;;;;;12.70;3.90;;;10.30;99.90;;;;;;5032130;28;20548;-76
2022/10/07 07:31:52;;;;;;;10.63;3.90;;;10.30;99.90;;;;;;5036733;28;20463;-76
2022/10/07 07:34:37;;;;;;;6.53;3.17;;;10.30;99.90;;;;;;5036640;28;20459;-76
2022/10/07 07:37:24;;;;;;;6.30;3.00;;;10.40;99.90;;;;;;5037218;28;20474;-77
2022/10/07 07:40:10;;;;;;;6.80;2.57;;;10.40;99.90;;;;;;5040744;28;20474;-76
2022/10/07 07:42:56;;;;;;;7.30;2.10;;;10.40;99.90;;;;;;5037710;28;21093;-76
2022/10/07 07:45:41;;;;;;;9.33;3.17;;;10.50;99.90;;;;;;5035600;28;20435;-77
2022/10/07 07:48:28;;;;;;;3.57;2.80;;;10.50;99.90;;;;;;5034908;28;20448;-77
2022/10/07 07:51:16;;;;;;;10.10;2.87;;;10.60;99.90;;;;;;5035450;28;20414;-76
2022/10/07 07:54:03;;;;;;;8.43;3.30;;;10.80;99.90;;;;;;5037619;28;20467;-76
2022/10/07 07:56:48;;;;;;;11.20;4.67;;;10.80;99.90;;;;;;5034299;28;20930;-76
2022/10/07 07:59:36;;;;;;;7.70;4.70;;;10.90;99.90;;;;;;5031106;28;20475;-76
2022/10/07 08:02:22;;;;;;;10.03;4.60;;;11.00;99.90;;;;;;5035982;28;21028;-77
2022/10/07 08:05:08;;;;;;;10.80;4.50;;;11.20;99.90;;;;;;5032004;28;20607;-76
2022/10/07 08:07:53;;;;;;;5.77;3.90;;;11.20;99.90;;;;;;5038247;28;20569;-76
2022/10/07 08:10:41;;;;;;;8.50;4.03;;;11.30;99.90;;;;;;5028135;28;20439;-77
2022/10/07 08:13:27;;;;;;;7.33;3.63;;;11.30;99.90;;;;;;5031770;28;20506;-76
2022/10/07 08:16:15;;;;;;;7.53;3.57;;;11.30;99.90;;;;;;5042293;28;20455;-76
2022/10/07 08:19:00;;;;;;;11.50;3.90;;;11.30;99.90;;;;;;5023183;28;20560;-76
2022/10/07 08:21:46;;;;;;;9.07;3.10;;;11.30;99.90;;;;;;5030766;28;20444;-75
2022/10/07 08:24:32;;;;;;;9.30;2.80;;;11.30;99.90;;;;;;5033083;28;20542;-76
2022/10/07 08:27:19;;;;;;;7.20;2.03;;;11.40;99.90;;;;;;5035878;28;20468;-77
2022/10/07 08:30:06;;;;;;;7.10;2.60;;;11.50;99.90;;;;;;5038771;28;20435;-77
2022/10/07 08:32:51;;;;;;;3.93;2.00;;;11.60;99.90;;;;;;5052083;28;20861;-77
2022/10/07 08:35:37;;;;;;;8.00;2.23;;;11.70;99.90;;;;;;5044524;28;20470;-76
2022/10/07 08:38:22;;;;;;;19.87;2.83;;;11.90;99.90;;;;;;5035073;28;20467;-77
2022/10/07 08:41:23;;;;;;;6.70;2.40;;;12.00;99.90;;;;;;5048959;28;20590;-76
2022/10/07 08:44:23;;;;;;;6.40;2.20;;;12.10;99.90;;;;;;5046580;28;20574;-77
2022/10/07 08:47:19;;;;;;;4.23;2.17;;;12.30;99.90;;;;;;5041595;28;20425;-77
2022/10/07 08:50:11;;;;;;;7.20;2.27;;;12.50;99.90;;;;;;5035626;28;20423;-77
2022/10/07 08:53:00;;;;;;;13.03;2.53;;;12.60;99.90;;;;;;5033829;28;20421;-76
2022/10/07 08:55:50;;;;;;;9.50;2.80;;;12.60;99.90;;;;;;5040018;28;20589;-76
2022/10/07 08:58:49;;;;;;;7.40;2.50;;;12.80;99.90;;;;;;5031563;28;20571;-76
2022/10/07 09:01:48;;;;;;;14.57;2.47;;;12.90;99.90;;;;;;5026698;28;20419;-76
2022/10/07 09:04:45;;;;;;;9.00;3.53;;;13.10;99.90;;;;;;5028260;28;20524;-76
2022/10/07 09:07:35;;;;;;;12.70;3.00;;;13.30;99.90;;;;;;5031854;28;20451;-74
2022/10/07 09:10:30;;;;;;;7.57;2.90;;;13.40;99.90;;;;;;5033473;28;20422;-75
2022/10/07 09:13:20;;;;;;;21.10;5.60;;;13.60;99.90;;;;;;5037885;28;20450;-77
2022/10/07 09:16:10;;;;;;;10.73;3.93;;;13.60;99.90;;;;;;5041842;28;20432;-77
2022/10/07 09:19:01;;;;;;;12.13;4.13;;;13.70;99.90;;;;;;5037950;28;20464;-77
2022/10/07 09:21:50;;;;;;;20.03;3.67;;;13.80;99.90;;;;;;5042759;28;20427;-77
2022/10/07 09:24:36;;;;;;;13.63;3.50;;;13.90;99.90;;;;;;5038057;28;20463;-77
2022/10/07 09:27:21;;;;;;;13.33;3.50;;;14.10;99.90;;;;;;5039293;28;20470;-77
2022/10/07 09:30:12;;;;;;;22.93;3.27;;;14.30;99.90;;;;;;5048205;28;20402;-77
2022/10/07 09:32:58;;;;;;;11.00;3.83;;;14.50;99.90;;;;;;5027459;28;20396;-77
2022/10/07 09:35:52;;;;;;;6.57;2.93;;;14.70;99.90;;;;;;5045241;28;20425;-77
2022/10/07 09:38:40;;;;;;;9.03;2.60;;;14.90;99.90;;;;;;5027597;28;20494;-78
2022/10/07 09:41:30;;;;;;;7.60;4.00;;;15.10;99.90;;;;;;5034934;28;20499;-77
2022/10/07 09:44:26;;;;;;;8.27;2.57;;;15.20;99.90;;;;;;5040302;28;20482;-77
2022/10/07 09:47:21;;;;;;;11.10;3.23;;;15.40;99.90;;;;;;5033350;28;20860;-75
2022/10/07 09:50:30;;;;;;;8.80;3.10;;;15.50;99.90;;;;;;5047885;28;20435;-77
2022/10/07 09:53:21;;;;;;;20.37;3.03;;;15.60;99.90;;;;;;5044689;28;20456;-76
2022/10/07 09:56:27;;;;;;;7.87;2.67;;;15.70;99.90;;;;;;5043642;28;20399;-77
2022/10/07 09:59:21;;;;;;;8.70;3.27;;;15.80;99.90;;;;;;5030706;28;20429;-77
2022/10/07 10:02:19;;;;;;;5.83;2.20;;;15.90;99.90;;;;;;5046350;28;20765;-77
2022/10/07 10:05:05;;;;;;;12.10;3.20;;;16.00;99.90;;;;;;5049356;28;20422;-76
2022/10/07 10:07:56;;;;;;;8.30;2.70;;;16.10;99.90;;;;;;5026411;28;20495;-77
2022/10/07 10:10:51;;;;;;;7.07;2.13;;;16.30;99.90;;;;;;5046570;28;20415;-77
2022/10/07 10:13:38;;;;;;;4.47;2.40;;;16.30;99.90;;;;;;5045348;28;20452;-77
2022/10/07 10:16:34;;;;;;;6.17;2.00;;;16.40;99.90;;;;;;5040198;28;20432;-77
2022/10/07 10:19:24;;;;;;;8.40;3.27;;;16.60;99.90;;;;;;5040965;28;20440;-77
2022/10/07 10:22:26;;;;;;;8.30;3.00;;;16.60;99.90;;;;;;5052126;28;20411;-77
2022/10/07 10:28:43;;;;;;;10.43;3.10;;;16.80;99.90;;;;;;5040049;28;20411;-77
2022/10/07 10:31:40;;;;;;;8.50;2.90;;;16.90;99.90;;;;;;5046861;28;20456;-76
2022/10/07 10:34:37;;;;;;;11.50;2.50;;;16.90;99.90;;;;;;5036776;28;20422;-77
2022/10/07 10:37:29;;;;;;;8.20;3.40;;;17.00;99.90;;;;;;5026506;28;20828;-77
2022/10/07 10:40:28;;;;;;;7.60;2.80;;;17.10;99.90;;;;;;5044429;28;20438;-77
2022/10/07 10:43:25;;;;;;;6.20;2.20;;;17.20;99.90;;;;;;5045499;28;20448;-77
2022/10/07 10:46:26;;;;;;;5.77;2.60;;;17.30;99.90;;;;;;5034641;28;20449;-75
2022/10/07 10:49:24;;;;;;;4.83;2.70;;;17.40;99.90;;;;;;5047899;28;20432;-76
2022/10/07 10:52:32;;;;;;;10.03;3.07;;;17.50;99.90;;;;;;5042997;28;20421;-77
2022/10/07 10:55:33;;;;;;;5.43;2.93;;;17.60;99.90;;;;;;5045810;28;20506;-77
2022/10/07 10:58:29;;;;;;;14.47;2.40;;;17.50;99.90;;;;;;5036072;28;20428;-77
2022/10/07 11:01:27;;;;;;;9.30;2.57;;;17.50;99.90;;;;;;5048007;28;20444;-77
2022/10/07 11:04:28;;;;;;;5.77;2.40;;;17.40;99.90;;;;;;5046712;28;20427;-77
2022/10/07 11:07:21;;;;;;;8.93;2.60;;;17.50;99.90;;;;;;5034232;28;20447;-77
2022/10/07 11:10:19;;;;;;;12.63;2.50;;;17.50;99.90;;;;;;5039759;28;20912;-77
2022/10/07 11:13:18;;;;;;;4.27;1.70;;;17.50;99.90;;;;;;5042271;28;20411;-76
2022/10/07 11:16:08;;;;;;;6.07;2.37;;;17.40;99.90;;;;;;5033024;28;20426;-77
2022/10/07 11:18:59;;;;;;;5.87;2.00;;;17.50;99.90;;;;;;5033880;28;20911;-77
2022/10/07 11:21:48;;;;;;;6.67;2.20;;;17.60;99.90;;;;;;5039658;28;20484;-76
2022/10/07 11:24:39;;;;;;;6.50;1.87;;;17.70;99.90;;;;;;5035907;28;20479;-76
2022/10/07 11:27:29;;;;;;;19.60;2.10;;;17.70;99.90;;;;;;5025528;28;20514;-77
2022/10/07 11:30:18;;;;;;;6.60;2.17;;;17.80;99.90;;;;;;5017936;28;21383;-76
2022/10/07 11:33:08;;;;;;;9.10;2.47;;;17.90;99.90;;;;;;5027485;28;20449;-76
2022/10/07 11:36:02;;;;;;;7.20;1.80;;;17.90;99.90;;;;;;5031579;28;20449;-75
2022/10/07 11:38:51;;;;;;;6.03;1.73;;;18.00;99.90;;;;;;5026242;28;20604;-77
2022/10/07 11:41:46;;;;;;;4.70;1.60;;;17.90;96.90;;;;;;5036211;28;20468;-77
2022/10/07 11:44:37;;;;;;;9.10;1.70;;;17.80;94.50;;;;;;5037198;28;20449;-77
2022/10/07 11:47:27;;;;;;;4.83;1.80;;;17.80;95.60;;;;;;5031346;28;20463;-77
2022/10/07 11:50:18;;;;;;;4.47;2.50;;;17.90;96.90;;;;;;5032349;28;20431;-78
2022/10/07 11:53:08;;;;;;;4.60;1.90;;;17.90;96.20;;;;;;5030452;28;20435;-77
2022/10/07 11:55:59;;;;;;;7.00;1.80;;;18.00;92.90;;;;;;5030908;28;20506;-77
2022/10/07 11:58:47;;;;;;;3.77;2.00;;;17.90;91.20;;;;;;5035767;28;20875;-76
2022/10/07 12:01:46;;;;;;;12.80;2.37;;;18.00;94.00;;;;;;5022897;28;20472;-77
2022/10/07 12:04:37;;;;;;;8.77;1.80;;;18.10;86.10;;;;;;5028027;28;20740;-75
2022/10/07 12:07:56;;;;;;;8.00;1.90;;;18.20;91.50;;;;;;5031171;28;20418;-77
2022/10/07 12:10:44;;;;;;;10.50;2.00;;;18.40;94.60;;;;;;5028337;28;20438;-76
2022/10/07 12:13:40;;;;;;;12.03;2.70;;;18.40;92.90;;;;;;5025552;28;21183;-76
2022/10/07 12:16:53;;;;;;;8.37;2.27;;;18.40;88.00;;;;;;5018076;28;20456;-76
2022/10/07 12:19:39;;;;;;;5.67;2.00;;;18.20;86.70;;;;;;5043149;28;20432;-77
2022/10/07 12:22:25;;;;;;;7.00;2.03;;;18.30;90.80;;;;;;5038058;28;20777;-76
2022/10/07 12:25:31;;;;;;;17.87;2.70;;;18.30;90.60;;;;;;5072334;22;20506;-79
2022/10/07 12:28:23;;;;;;;6.67;2.63;;;18.40;87.80;;;;;;5056132;28;20564;-77
2022/10/07 12:31:45;;;;;;;7.70;2.20;;;18.40;82.60;;;;;;5069093;28;20484;-77
2022/10/07 12:34:37;;;;;;;3.83;2.17;;;18.60;85.40;;;;;;5063732;28;20446;-76
2022/10/07 12:37:48;;;;;;;4.90;2.10;;;18.70;80.60;;;;;;5064229;28;20810;-77
2022/10/07 12:40:35;;;;;;;9.10;1.97;;;18.80;81.40;;;;;;5060600;28;20505;-76
2022/10/07 12:43:45;;;;;;;7.53;2.73;;;19.00;83.50;;;;;;5065861;28;20420;-77
2022/10/07 12:46:38;;;;;;;6.23;3.00;;;19.20;79.70;;;;;;5069390;28;20754;-77
2022/10/07 12:49:29;;;;;;;10.77;3.00;;;19.40;83.40;;;;;;5076781;28;20430;-77
2022/10/07 12:52:19;;;;;;;14.07;3.77;;;19.60;83.90;;;;;;5066829;28;20533;-76
2022/10/07 12:55:09;;;;;;;8.17;3.63;;;19.90;86.30;;;;;;5067153;28;20990;-77
2022/10/07 12:59:45;;;;;;;13.10;3.07;;;20.00;78.50;;;;;;5069095;28;20421;-77
2022/10/07 13:01:17;;;;;;;8.13;2.80;;;20.20;77.90;;;;;;5079842;28;20443;-77
2022/10/07 13:04:27;;;;;;;5.97;2.93;;;20.40;77.00;;;;;;5062575;28;20446;-77
2022/10/07 13:07:50;;;;;;;8.50;3.57;;;20.50;75.00;;;;;;5063755;28;20409;-77
2022/10/07 13:10:53;;;;;;;10.40;4.30;;;20.50;72.80;;;;;;5076635;28;20526;-77
2022/10/07 13:13:44;;;;;;;8.10;4.03;;;20.60;73.60;;;;;;5064270;28;20479;-76
2022/10/07 13:16:37;;;;;;;11.90;4.40;;;20.70;75.90;;;;;;5076664;28;20504;-77
2022/10/07 13:19:31;;;;;;;5.60;3.50;;;20.80;71.90;;;;;;5061311;28;20539;-77
2022/10/07 13:22:18;;;;;;;7.27;4.20;;;20.90;72.20;;;;;;5070729;28;20504;-77
2022/10/07 13:25:07;;;;;;;9.10;3.50;;;20.80;73.40;;;;;;5066504;28;20613;-76
2022/10/07 13:27:55;;;;;;;11.83;4.30;;;20.90;75.30;;;;;;5060063;28;20549;-77
2022/10/07 13:30:44;;;;;;;10.73;5.50;;;20.90;72.30;;;;;;5077612;28;20758;-77
2022/10/07 13:33:32;;;;;;;6.47;4.17;;;20.70;73.80;;;;;;5061662;28;20397;-77
2022/10/07 13:36:20;;;;;;;9.23;4.93;;;20.60;76.00;;;;;;5076010;28;20450;-77
2022/10/07 13:39:19;;;;;;;13.13;5.77;;;20.60;78.30;;;;;;5054710;28;20403;-77
2022/10/07 13:42:10;;;;;;;7.13;3.43;;;20.50;78.30;;;;;;5081997;28;20582;-76
2022/10/07 13:45:01;;;;;;;8.73;4.60;;;20.70;79.70;;;;;;5086614;28;20416;-77
2022/10/07 13:47:47;;;;;;;19.30;4.70;;;20.80;77.60;;;;;;5072365;28;21085;-76
2022/10/07 13:50:34;;;;;;;11.80;4.40;;;20.80;77.60;;;;;;5080754;28;20397;-77
2022/10/07 13:53:22;;;;;;;6.53;4.40;;;20.60;75.80;;;;;;5070447;28;20768;-77
2022/10/07 13:56:18;;;;;;;8.20;5.20;;;20.40;76.70;;;;;;5067957;28;20447;-76
2022/10/07 13:59:06;;;;;;;13.10;4.77;;;20.40;79.70;;;;;;5075077;28;20401;-76
2022/10/07 14:01:53;;;;;;;6.97;4.17;;;20.70;79.70;;;;;;5084783;28;20738;-76
2022/10/07 14:04:55;;;;;;;12.30;5.50;;;20.80;78.60;;;;;;5068514;28;20429;-76
2022/10/07 14:07:43;;;;;;;10.20;4.43;;;21.00;80.50;;;;;;5078188;28;20444;-77
2022/10/07 14:10:31;;;;;;;11.63;4.40;;;21.20;77.60;;;;;;5080355;28;20438;-77
2022/10/07 14:13:17;;;;;;;11.33;4.20;;;21.30;77.20;;;;;;5084516;28;20542;-77
2022/10/07 14:16:03;;;;;;;13.63;4.70;;;21.40;74.10;;;;;;5066396;28;20417;-77
2022/10/07 14:18:49;;;;;;;8.53;4.70;;;21.60;75.90;;;;;;5064825;28;20418;-77
2022/10/07 14:21:40;;;;;;;9.60;4.70;;;21.80;72.70;;;;;;5078116;28;20502;-77
2022/10/07 14:24:28;;;;;;;14.93;4.53;;;21.90;71.00;;;;;;5082189;28;21001;-76
2022/10/07 14:27:39;;;;;;;10.20;5.70;;;22.10;69.40;;;;;;5081536;28;20771;-77
2022/10/07 14:37:04;;;;;;;7.43;4.40;;;22.40;64.50;;;;;;5080031;28;20437;-76
2022/10/07 14:39:53;;;;;;;13.73;4.43;;;22.50;64.30;;;;;;5086682;28;21028;-76
2022/10/07 14:42:38;;;;;;;18.07;4.60;;;22.40;65.20;;;;;;5062710;28;20973;-76
2022/10/07 14:45:24;;;;;;;19.90;4.63;;;22.60;64.10;;;;;;5081086;28;20453;-77
2022/10/07 14:48:13;;;;;;;13.83;4.73;;;22.80;64.80;;;;;;5065367;28;20543;-77
2022/10/07 14:50:59;;;;;;;10.87;4.70;;;22.80;64.30;;;;;;5068623;28;20601;-77
2022/10/07 14:53:47;;;;;;;8.80;5.60;;;22.60;67.50;;;;;;5065200;28;20446;-77
2022/10/07 14:56:35;;;;;;;10.33;6.60;;;22.80;64.50;;;;;;5068881;28;22449;-77
2022/10/07 14:59:22;;;;;;;17.33;13.80;;;23.00;60.00;;;;;;5068853;28;20978;-77
2022/10/07 15:02:07;;;;;;;13.27;6.20;;;23.30;56.50;;;;;;5072776;28;20497;-77
2022/10/07 15:04:53;;;;;;;20.77;7.60;;;23.40;55.60;;;;;;5068597;28;20535;-76